VTCP

Details ICAO VTCP (PRH)
Name Phrae
Region Thailand
Timezone Asia/Bangkok (UTC+7.0)
Plans Departing 1
Arriving 5
Stats Elevation 538 ft / 164 m (AMSL)
Location 18.132168° 100.164664°
Runways 1
Magnetic Variation 0.770° W
Sunrise 2017-12-17 23:45:53 UTC / 2017-12-18 06:45:53 Local
Sunset 2017-12-18 10:48:28 UTC / 2017-12-18 17:48:28 Local
Advertisement - Login to hide

Runways

ID Width Length Bearing (true) Bearing (mag) Surface Threshold Offset Overrun Length
01 98 ft / 30 m 4,968 ft / 1,514 m 5.52° 6.29° Asphalt 0 ft / 0 m 246 ft / 75 m
19 98 ft / 30 m 4,968 ft / 1,514 m 185.52° 186.29° Asphalt 0 ft / 0 m 246 ft / 75 m

Map

Weather


0- 5 10 15 20 25 30 35+ Temperature / ° C

Clouds and Precipitation
Forecast for 2017-12-18 06:00 UTC. Updated 2 hours ago

Ground ~20,000 ft ~40,000 ft Winds

METAR

VTCP 180300Z 01004KT 3000 HZ NSC 22/14 Q1022

TAF

TAF VTCP 172300Z 1800/1824 06006KT 9999 SCT030

Frequencies

Tower 118.60 MHz TWR
Approach 120.10 MHz APP
Warning: Do not use this data for real-world aviation or navigation. No guarantee of current accuracy is given.